Terminal Aerodrome Forecast
Issued by NWS

Home | Current Version | Previous Version | Graphics & Text | Print | Product List | Glossary On
Versions: 1 2 3 4 5 6 7 8 9 10 11 12 13 14 15 16 17 18 19
807
FTUS43 KABR 200527
TAFMBG
TAF
KMBG 200527Z 2006/2106 VRB05KT P6SM OVC100
     FM201600 04010KT P6SM BKN050
     FM210400 VRB06KT P6SM BKN090=

USA.gov is the U.S. government's official web portal to all federal, state and local government web resources and services.